Time;durP1;ratioP1;P1;durP2;ratioP2;P2;SDS_P1;SDS_P2;PMS_P1;PMS_P2;Temp;Humidity;BMP_temperature;BMP_pressure;BME280_temperature;BME280_humidity;BME280_pressure;Samples;Min_cycle;Max_cycle;Signal;HPM_P1;HPM_P2
2023/09/15 00:00:33;;;;;;;8.30;7.30;;;;;;;15.02;100.00;99429.91;136899;1273;22611;-87
2023/09/15 00:03:55;;;;;;;72.00;12.50;;;;;;;15.01;100.00;99429.56;136972;1273;22408;-86
2023/09/15 00:06:56;;;;;;;9.10;6.90;;;;;;;15.00;100.00;99430.79;137505;1273;22189;-86
2023/09/15 00:09:58;;;;;;;15.00;8.30;;;;;;;14.99;100.00;99434.46;136548;1273;23029;-86
2023/09/15 00:13:02;;;;;;;9.90;7.30;;;;;;;14.99;100.00;99435.34;136412;1267;22544;-87
2023/09/15 00:16:08;;;;;;;10.70;8.60;;;;;;;14.98;100.00;99435.34;136872;1272;22552;-86
2023/09/15 00:19:16;;;;;;;20.30;8.70;;;;;;;14.98;100.00;99437.96;136521;1273;22579;-87
2023/09/15 00:22:18;;;;;;;10.70;8.90;;;;;;;15.02;100.00;99439.39;137231;1250;22585;-85
2023/09/15 00:25:22;;;;;;;13.70;9.30;;;;;;;15.05;100.00;99438.34;136670;1273;22634;-85
2023/09/15 00:28:24;;;;;;;10.40;8.00;;;;;;;15.07;100.00;99434.49;136754;1273;22278;-86
2023/09/15 00:31:26;;;;;;;9.80;7.60;;;;;;;15.08;100.00;99433.09;137436;1273;22288;-87
2023/09/15 00:34:27;;;;;;;12.60;8.40;;;;;;;15.06;100.00;99436.41;136886;1270;22570;-87
2023/09/15 00:37:29;;;;;;;8.20;7.40;;;;;;;15.06;100.00;99435.71;136961;1269;22618;-86
2023/09/15 00:40:31;;;;;;;17.80;8.00;;;;;;;15.06;100.00;99440.80;137489;1273;22413;-84
2023/09/15 00:43:43;;;;;;;10.20;7.70;;;;;;;15.04;100.00;99444.30;136699;1273;22538;-87
2023/09/15 00:46:46;;;;;;;10.20;7.40;;;;;;;15.02;100.00;99446.73;136786;1273;22541;-87
2023/09/15 00:49:52;;;;;;;7.40;6.70;;;;;;;14.99;100.00;99441.83;137062;1273;22536;-87
2023/09/15 00:52:57;;;;;;;7.40;6.60;;;;;;;15.00;100.00;99443.94;136750;1273;22592;-88
2023/09/15 00:55:58;;;;;;;10.30;7.30;;;;;;;15.04;100.00;99444.82;137214;1273;22224;-87
2023/09/15 01:02:20;;;;;;;8.60;6.80;;;;;;;15.02;100.00;99447.09;136494;1273;22570;-87
2023/09/15 01:05:24;;;;;;;7.80;6.60;;;;;;;14.99;100.00;99447.43;137120;1273;22150;-87
2023/09/15 01:08:26;;;;;;;7.50;6.20;;;;;;;14.98;100.00;99444.98;136654;1273;22206;-85
2023/09/15 01:11:31;;;;;;;12.70;7.50;;;;;;;15.01;100.00;99450.60;136933;1273;22591;-87
2023/09/15 01:14:35;;;;;;;15.40;7.40;;;;;;;15.01;100.00;99450.42;136865;1272;22529;-88
2023/09/15 01:17:38;;;;;;;14.00;6.60;;;;;;;15.00;100.00;99450.06;136757;1269;22559;-87
2023/09/15 01:20:57;;;;;;;13.80;7.30;;;;;;;15.00;100.00;99454.45;136981;1273;22656;-86
2023/09/15 01:24:17;;;;;;;50.00;10.30;;;;;;;14.98;100.00;99459.87;136632;1260;22176;-87
2023/09/15 01:27:22;;;;;;;8.40;6.70;;;;;;;14.97;100.00;99461.62;136839;1260;22502;-86
2023/09/15 01:30:29;;;;;;;7.30;6.60;;;;;;;14.95;100.00;99463.02;136596;1270;22582;-86
2023/09/15 01:33:41;;;;;;;7.20;6.50;;;;;;;14.93;100.00;99465.98;136331;1273;22644;-86
2023/09/15 01:43:47;;;;;;;8.00;6.10;;;;;;;15.01;100.00;99467.25;136668;1254;22541;-85
2023/09/15 01:47:08;;;;;;;7.10;6.10;;;;;;;15.02;100.00;99467.77;136666;1271;22571;-85
2023/09/15 01:50:11;;;;;;;6.90;6.10;;;;;;;15.01;100.00;99468.83;136510;1271;22559;-85
2023/09/15 01:53:32;;;;;;;6.40;5.60;;;;;;;15.03;100.00;99468.48;136622;1273;24324;-85
2023/09/15 01:56:37;;;;;;;7.00;6.10;;;;;;;15.03;100.00;99470.58;136704;1273;22619;-85
2023/09/15 01:59:44;;;;;;;6.30;5.70;;;;;;;15.04;100.00;99470.41;137135;1271;23004;-85
2023/09/15 02:02:50;;;;;;;10.30;5.30;;;;;;;15.05;100.00;99473.56;136793;1271;22536;-86
2023/09/15 02:06:03;;;;;;;10.90;5.90;;;;;;;15.05;100.00;99471.29;136962;1272;22244;-84
2023/09/15 02:09:17;;;;;;;7.90;5.50;;;;;;;15.06;100.00;99478.48;136883;1273;23002;-86
2023/09/15 02:12:36;;;;;;;7.30;5.60;;;;;;;15.07;100.00;99477.27;136627;1273;23014;-86
2023/09/15 02:15:38;;;;;;;5.50;4.90;;;;;;;15.10;100.00;99477.27;137381;1273;22627;-85
2023/09/15 02:18:44;;;;;;;7.30;5.60;;;;;;;15.12;100.00;99480.09;137300;1273;22184;-85
2023/09/15 02:21:46;;;;;;;10.10;5.50;;;;;;;15.14;100.00;99478.34;137360;1272;22642;-85
2023/09/15 02:24:57;;;;;;;22.00;6.40;;;;;;;15.18;100.00;99479.05;136892;1273;22522;-87
2023/09/15 02:28:02;;;;;;;22.60;5.60;;;;;;;15.20;100.00;99479.77;137157;1273;23298;-87
2023/09/15 02:31:04;;;;;;;9.70;4.90;;;;;;;15.21;100.00;99486.77;137317;1273;22629;-86
2023/09/15 02:34:06;;;;;;;5.90;5.00;;;;;;;15.20;100.00;99488.88;137246;1273;22537;-85
2023/09/15 02:37:12;;;;;;;9.30;5.50;;;;;;;15.18;100.00;99486.06;137343;1267;22661;-86
2023/09/15 02:40:15;;;;;;;11.40;6.10;;;;;;;15.17;100.00;99487.29;137309;1266;22212;-85
2023/09/15 02:43:20;;;;;;;10.80;5.80;;;;;;;15.15;100.00;99489.02;137136;1271;22546;-86
2023/09/15 02:46:27;;;;;;;8.70;5.30;;;;;;;15.14;100.00;99491.30;137371;1273;22554;-85
2023/09/15 02:49:34;;;;;;;5.60;5.10;;;;;;;15.15;100.00;99490.25;137227;1273;22761;-86
2023/09/15 02:52:39;;;;;;;14.90;6.00;;;;;;;15.13;100.00;99488.85;137294;1266;22556;-85
2023/09/15 02:55:40;;;;;;;6.30;4.90;;;;;;;15.12;100.00;99489.36;137240;1273;22189;-81
2023/09/15 03:06:20;;;;;;;7.70;4.90;;;;;;;15.00;100.00;99480.73;136704;1278;22197;-86
2023/09/15 03:09:32;;;;;;;14.80;5.40;;;;;;;14.90;100.00;99478.59;136113;1278;22262;-86
2023/09/15 03:12:51;;;;;;;;;;;;;;;;;;;;;
2023/09/15 03:16:13;;;;;;;11.20;4.80;;;;;;;14.73;100.00;99488.81;136236;1278;22263;-86
2023/09/15 03:19:31;;;;;;;5.40;4.10;;;;;;;14.65;100.00;99493.84;136198;1278;22186;-85
2023/09/15 03:30:22;;;;;;;8.00;4.20;;;;;;;14.25;100.00;99490.92;136386;1283;22318;-86
2023/09/15 03:33:41;;;;;;;74.60;7.90;;;;;;;14.14;100.00;99495.58;136281;1283;22165;-87
2023/09/15 03:36:45;;;;;;;10.60;4.40;;;;;;;14.06;100.00;99497.44;135940;1283;23098;-86
2023/09/15 03:40:04;;;;;;;802.60;58.50;;;;;;;13.96;100.00;99502.08;136453;1277;22571;-86
2023/09/15 03:46:41;;;;;;;10.40;4.60;;;;;;;13.93;100.00;99502.55;136071;1283;22637;-83
2023/09/15 03:53:20;;;;;;;7.00;4.00;;;;;;;14.05;100.00;99510.72;135700;1287;22600;-85
2023/09/15 04:03:45;;;;;;;7.60;4.00;;;;;;;13.53;100.00;99533.10;135948;1291;22556;-84
2023/09/15 04:11:07;;;;;;;7.90;3.30;;;;;;;13.23;100.00;99540.10;136354;1288;22835;-85
2023/09/15 04:14:16;;;;;;;5.40;3.50;;;;;;;13.14;100.00;99538.21;136286;1288;22299;-85
2023/09/15 04:17:29;;;;;;;3.70;3.30;;;;;;;13.04;100.00;99545.42;136057;1287;22307;-85
2023/09/15 04:20:31;;;;;;;7.00;3.40;;;;;;;12.97;100.00;99542.69;135899;1288;22317;-86
2023/09/15 04:27:15;;;;;;;9.10;4.00;;;;;;;12.74;100.00;99537.46;136495;1278;22244;-86
2023/09/15 04:31:04;;;;;;;;;;;;;;;;;;;;;
2023/09/15 04:34:19;;;;;;;60.10;6.80;;;;;;;12.66;100.00;99549.05;137030;1278;22709;-80
2023/09/15 04:41:04;;;;;;;9.00;4.60;;;;;;;12.86;100.00;99555.79;136909;1277;22669;-85
2023/09/15 04:44:07;;;;;;;373.40;19.10;;;;;;;12.78;100.00;99559.52;137065;1277;22309;-86
2023/09/15 04:47:13;;;;;;;7.90;4.40;;;;;;;12.72;100.00;99565.73;137050;1277;22173;-86
2023/09/15 04:50:22;;;;;;;15.70;4.40;;;;;;;12.68;100.00;99570.05;136845;1278;23020;-84
2023/09/15 04:53:24;;;;;;;4.70;3.50;;;;;;;12.66;100.00;99570.35;137026;1277;22316;-85
2023/09/15 04:56:33;;;;;;;78.90;9.20;;;;;;;12.65;100.00;99574.54;137001;1274;22717;-86
2023/09/15 04:59:37;;;;;;;28.70;5.60;;;;;;;12.72;100.00;99574.45;136796;1277;22538;-85
2023/09/15 05:02:45;;;;;;;65.20;6.70;;;;;;;12.81;100.00;99576.67;136703;1277;22279;-86
2023/09/15 05:06:13;;;;;;;19.20;4.80;;;;;;;12.87;100.00;99583.94;136709;1277;22287;-85
2023/09/15 05:09:22;;;;;;;13.30;5.40;;;;;;;12.96;100.00;99580.05;136617;1277;22580;-84
2023/09/15 05:12:23;;;;;;;19.10;5.10;;;;;;;13.10;100.00;99588.83;137033;1277;22563;-82
2023/09/15 05:15:25;;;;;;;864.70;73.80;;;;;;;13.20;100.00;99591.27;136995;1277;22306;-85
2023/09/15 05:18:26;;;;;;;34.40;7.10;;;;;;;13.29;100.00;99595.75;137444;1273;22324;-80
2023/09/15 05:21:27;;;;;;;20.70;5.00;;;;;;;13.37;100.00;99600.40;137471;1273;22309;-82
2023/09/15 05:24:34;;;;;;;511.50;40.40;;;;;;;13.49;100.00;99598.27;137539;1273;22426;-86
2023/09/15 05:28:04;;;;;;;31.40;5.60;;;;;;;13.62;100.00;99605.24;137512;1272;22375;-86
2023/09/15 05:31:07;;;;;;;10.10;3.80;;;;;;;13.72;100.00;99605.37;137462;1273;22536;-82
2023/09/15 05:34:11;;;;;;;13.70;4.60;;;;;;;13.84;100.00;99607.95;137385;1273;22965;-84
2023/09/15 05:37:18;;;;;;;5.00;4.30;;;;;;;13.97;100.00;99610.21;137236;1273;22570;-84
2023/09/15 05:40:20;;;;;;;9.40;4.70;;;;;;;14.08;100.00;99609.11;136935;1272;22519;-86
2023/09/15 05:43:24;;;;;;;;;;;;;;;14.15;100.00;99610.05;136920;1273;22527;-85
2023/09/15 05:46:25;;;;;;;7.00;3.90;;;;;;;14.22;100.00;99615.36;137518;1271;22234;-85
2023/09/15 05:49:28;;;;;;;6.30;3.90;;;;;;;14.37;100.00;99615.67;137517;1271;22546;-84
2023/09/15 05:52:29;;;;;;;16.90;5.10;;;;;;;14.48;100.00;99617.55;137400;1273;22226;-84
2023/09/15 05:55:30;;;;;;;29.70;5.80;;;;;;;14.56;100.00;99620.43;137562;1273;22614;-85
2023/09/15 05:58:32;;;;;;;16.60;5.00;;;;;;;14.73;100.00;99621.79;137436;1273;22198;-84
2023/09/15 06:01:36;;;;;;;8.70;4.80;;;;;;;14.85;100.00;99623.30;137533;1273;22667;-84
2023/09/15 06:04:37;;;;;;;;;;;;;;;14.95;100.00;99622.85;137543;1273;22671;-84
2023/09/15 06:07:38;;;;;;;7.30;4.20;;;;;;;15.08;100.00;99620.30;137560;1273;23090;-84
2023/09/15 06:10:40;;;;;;;11.00;4.70;;;;;;;15.30;100.00;99621.83;137564;1273;22349;-84
2023/09/15 06:13:42;;;;;;;8.00;3.90;;;;;;;15.53;100.00;99621.06;137598;1273;22238;-84
2023/09/15 06:16:43;;;;;;;28.80;6.00;;;;;;;15.77;100.00;99620.52;137558;1266;22627;-85
2023/09/15 06:19:45;;;;;;;9.60;4.10;;;;;;;15.94;100.00;99617.57;137588;1272;22316;-87
2023/09/15 06:22:46;;;;;;;5.50;3.00;;;;;;;16.04;100.00;99616.54;137574;1269;22283;-81
2023/09/15 06:25:47;;;;;;;79.30;7.60;;;;;;;16.18;100.00;99616.56;137586;1273;22174;-86
2023/09/15 06:28:48;;;;;;;206.80;19.90;;;;;;;16.37;100.00;99619.39;137280;1273;22570;-87
2023/09/15 06:31:50;;;;;;;9.50;3.60;;;;;;;16.59;100.00;99622.96;137516;1273;22202;-84
2023/09/15 06:34:51;;;;;;;30.60;4.80;;;;;;;16.77;100.00;99624.21;137539;1273;22339;-85
2023/09/15 06:37:52;;;;;;;10.10;3.40;;;;;;;16.94;100.00;99625.95;137622;1273;22839;-84
2023/09/15 06:40:53;;;;;;;5.60;3.20;;;;;;;17.08;100.00;99623.29;137542;1273;22645;-84
2023/09/15 06:44:14;;;;;;;12.50;4.10;;;;;;;17.21;100.00;99625.71;132920;1304;544883;-84
2023/09/15 06:47:17;;;;;;;12.10;3.50;;;;;;;17.11;100.00;99622.58;136334;1288;22624;-84
2023/09/15 06:50:19;;;;;;;5.20;3.30;;;;;;;17.14;100.00;99624.85;136288;1288;22203;-83
2023/09/15 06:53:22;;;;;;;21.50;4.70;;;;;;;17.23;100.00;99625.18;136282;1289;22440;-82
2023/09/15 06:56:25;;;;;;;6.00;3.40;;;;;;;17.35;100.00;99621.14;136374;1276;235115;-83
2023/09/15 06:59:28;;;;;;;5.20;3.10;;;;;;;17.45;100.00;99617.41;136681;1282;22259;-83
2023/09/15 07:02:30;;;;;;;7.60;3.20;;;;;;;17.61;100.00;99617.70;136660;1282;22738;-84
2023/09/15 07:05:32;;;;;;;10.60;3.80;;;;;;;17.80;100.00;99619.77;136683;1282;22366;-83
2023/09/15 07:08:35;;;;;;;57.30;7.10;;;;;;;18.02;100.00;99617.87;136678;1282;22172;-82
2023/09/15 07:11:38;;;;;;;7.60;3.20;;;;;;;18.17;100.00;99623.41;136574;1282;22747;-84
2023/09/15 07:14:40;;;;;;;5.00;2.90;;;;;;;18.24;100.00;99624.80;136674;1282;22250;-85
2023/09/15 07:17:43;;;;;;;4.90;2.90;;;;;;;18.37;100.00;99626.30;136740;1282;22210;-84
2023/09/15 07:20:45;;;;;;;6.70;3.20;;;;;;;18.54;100.00;99624.77;136625;1265;22249;-84
2023/09/15 07:23:48;;;;;;;4.00;2.70;;;;;;;18.69;100.00;99623.79;136720;1282;22681;-83
2023/09/15 07:26:51;;;;;;;5.60;2.80;;;;;;;18.90;100.00;99625.19;136634;1282;22231;-82
2023/09/15 07:29:53;;;;;;;5.30;2.60;;;;;;;19.01;100.00;99626.14;136624;1282;22235;-79
2023/09/15 07:32:56;;;;;;;4.40;2.70;;;;;;;19.01;100.00;99629.14;136662;1274;22229;-80
2023/09/15 07:35:58;;;;;;;6.00;2.60;;;;;;;18.99;100.00;99630.75;136582;1282;22191;-83
2023/09/15 07:39:01;;;;;;;3.90;2.50;;;;;;;19.06;100.00;99629.10;136651;1282;22219;-84
2023/09/15 07:42:08;;;;;;;7.60;2.90;;;;;;;19.19;100.00;99623.35;136660;1275;22184;-84
2023/09/15 07:45:11;;;;;;;4.80;2.40;;;;;;;19.35;100.00;99622.47;136634;1282;22259;-83
2023/09/15 07:48:13;;;;;;;27.00;3.70;;;;;;;19.51;100.00;99619.65;136653;1282;22253;-83
2023/09/15 07:51:16;;;;;;;5.70;2.60;;;;;;;19.63;100.00;99618.80;136640;1271;22197;-82
2023/09/15 07:54:19;;;;;;;4.20;2.30;;;;;;;19.80;100.00;99618.58;136678;1282;22255;-83
2023/09/15 07:57:21;;;;;;;12.20;2.70;;;;;;;19.92;100.00;99624.27;136657;1282;22597;-80
2023/09/15 08:00:24;;;;;;;7.20;3.00;;;;;;;19.98;100.00;99626.14;136924;1278;22868;-82
2023/09/15 08:03:26;;;;;;;2.80;2.40;;;;;;;20.03;100.00;99625.02;136912;1278;22314;-80
2023/09/15 08:06:29;;;;;;;5.00;2.40;;;;;;;20.12;86.74;99627.36;136954;1278;22375;-81
2023/09/15 08:09:32;;;;;;;4.10;2.70;;;;;;;20.25;64.68;99625.75;136909;1278;22666;-81
2023/09/15 08:12:35;;;;;;;3.80;2.70;;;;;;;20.38;63.85;99625.40;136919;1278;22209;-80
2023/09/15 08:15:38;;;;;;;5.00;2.90;;;;;;;20.33;61.96;99624.92;136962;1272;22224;-81
2023/09/15 08:18:41;;;;;;;738.40;68.70;;;;;;;20.40;63.00;99623.77;136758;1278;22244;-81
2023/09/15 08:21:43;;;;;;;10.50;3.50;;;;;;;20.53;62.27;99623.95;136782;1278;22225;-83
2023/09/15 08:24:48;;;;;;;4.10;2.80;;;;;;;20.51;61.38;99622.91;136968;1278;22297;-81
2023/09/15 08:27:50;;;;;;;6.20;3.20;;;;;;;20.54;61.11;99623.73;136989;1279;22340;-81
2023/09/15 08:30:53;;;;;;;5.70;3.00;;;;;;;20.63;61.79;99623.06;136915;1278;22277;-82
2023/09/15 08:33:56;;;;;;;6.90;3.20;;;;;;;20.86;62.36;99625.35;137012;1279;22180;-81
2023/09/15 08:36:58;;;;;;;5.80;2.80;;;;;;;21.07;60.58;99629.06;136996;1279;22160;-84
2023/09/15 08:40:01;;;;;;;55.90;10.10;;;;;;;21.13;61.46;99629.13;137017;1279;22246;-82
2023/09/15 08:43:03;;;;;;;4.70;3.20;;;;;;;21.25;60.81;99631.73;137026;1279;22268;-83
2023/09/15 08:46:06;;;;;;;6.90;3.40;;;;;;;21.16;56.56;99634.55;137000;1279;22218;-84
2023/09/15 08:49:09;;;;;;;3.30;2.80;;;;;;;20.98;56.82;99636.30;137036;1279;22215;-83
2023/09/15 08:52:12;;;;;;;4.50;2.60;;;;;;;20.88;56.30;99634.88;137071;1279;22264;-83
2023/09/15 08:55:14;;;;;;;6.10;3.10;;;;;;;20.99;56.26;99634.86;137069;1279;22197;-83
2023/09/15 08:58:17;;;;;;;4.40;2.60;;;;;;;21.12;56.15;99633.91;137100;1278;22131;-82
2023/09/15 09:01:19;;;;;;;7.40;2.80;;;;;;;21.15;56.19;99628.56;137146;1278;22216;-81
2023/09/15 09:04:22;;;;;;;5.40;2.60;;;;;;;21.09;54.43;99633.09;137127;1279;22538;-82
2023/09/15 09:07:24;;;;;;;69.30;8.90;;;;;;;21.04;54.72;99630.89;137193;1279;22369;-82
2023/09/15 09:10:27;;;;;;;6.80;3.00;;;;;;;21.14;54.98;99632.11;137125;1279;22164;-82
2023/09/15 09:13:30;;;;;;;4.40;2.60;;;;;;;21.28;54.27;99631.70;137160;1279;22477;-82
2023/09/15 09:16:33;;;;;;;16.90;4.30;;;;;;;21.38;53.70;99629.56;137114;1279;22637;-82
2023/09/15 09:19:36;;;;;;;4.70;3.10;;;;;;;21.38;54.62;99631.34;137083;1263;22253;-82
2023/09/15 09:22:39;;;;;;;2.90;2.70;;;;;;;21.56;55.01;99631.33;137050;1279;22394;-81
2023/09/15 09:25:41;;;;;;;4.90;3.00;;;;;;;21.76;54.08;99629.69;137097;1279;22270;-83
2023/09/15 09:28:44;;;;;;;8.80;2.80;;;;;;;21.75;53.88;99631.31;137053;1279;22257;-84
2023/09/15 09:31:46;;;;;;;3.50;3.20;;;;;;;21.61;53.48;99635.83;136944;1279;22153;-82
2023/09/15 09:34:49;;;;;;;4.70;2.90;;;;;;;21.50;54.90;99634.98;136905;1279;22805;-82
2023/09/15 09:37:51;;;;;;;3.50;2.80;;;;;;;21.52;54.82;99632.99;136956;1279;22248;-82
2023/09/15 09:40:55;;;;;;;4.60;2.80;;;;;;;21.43;54.67;99634.25;136918;1279;22227;-82
2023/09/15 09:43:58;;;;;;;6.90;3.10;;;;;;;21.50;53.88;99634.98;136924;1279;22310;-81
2023/09/15 09:47:00;;;;;;;2.90;2.60;;;;;;;21.58;54.30;99630.59;136949;1279;22328;-81
2023/09/15 09:50:03;;;;;;;15.20;3.60;;;;;;;21.58;52.63;99627.02;136964;1278;22855;-84
2023/09/15 09:53:05;;;;;;;4.30;2.60;;;;;;;21.47;52.00;99631.33;136918;1272;22364;-83
2023/09/15 09:56:08;;;;;;;4.80;2.70;;;;;;;21.34;52.00;99626.09;136904;1278;22178;-83
2023/09/15 09:59:11;;;;;;;3.70;2.60;;;;;;;21.32;52.51;99623.30;136931;1278;22236;-85
2023/09/15 10:02:13;;;;;;;2.70;2.50;;;;;;;21.51;52.80;99619.55;136903;1279;22217;-84
2023/09/15 10:05:16;;;;;;;3.10;2.80;;;;;;;21.63;52.65;99621.26;136887;1278;22179;-82
2023/09/15 10:08:18;;;;;;;7.50;3.30;;;;;;;21.76;52.12;99625.27;136851;1278;22177;-81
2023/09/15 10:11:21;;;;;;;4.00;2.50;;;;;;;21.86;51.71;99620.97;136839;1279;23505;-83
2023/09/15 10:14:23;;;;;;;20.10;4.30;;;;;;;21.90;50.52;99616.64;136824;1278;22360;-83
2023/09/15 10:17:27;;;;;;;53.10;7.10;;;;;;;21.85;50.44;99614.27;136827;1278;22813;-83
2023/09/15 10:20:30;;;;;;;3.70;2.70;;;;;;;21.83;50.65;99611.84;136877;1279;22212;-82
2023/09/15 10:23:32;;;;;;;8.10;2.50;;;;;;;21.90;51.18;99611.34;136838;1279;22244;-83
2023/09/15 10:26:35;;;;;;;4.40;2.80;;;;;;;21.75;50.11;99611.13;136931;1279;22199;-83
2023/09/15 10:29:37;;;;;;;6.10;2.80;;;;;;;21.56;51.14;99602.82;136902;1279;22165;-82
2023/09/15 10:32:40;;;;;;;6.20;3.50;;;;;;;21.70;51.65;99596.86;136887;1275;22666;-83
2023/09/15 10:35:43;;;;;;;6.30;3.10;;;;;;;22.02;51.45;99597.08;136933;1279;22172;-86
2023/09/15 10:38:47;;;;;;;6.20;3.40;;;;;;;22.06;51.09;99597.16;137385;1269;22238;-82
2023/09/15 10:41:53;;;;;;;124.50;11.00;;;;;;;21.90;49.89;99593.95;137375;1275;22483;-82
2023/09/15 10:44:56;;;;;;;11.00;3.10;;;;;;;21.67;49.60;99596.58;137304;1269;22530;-84
2023/09/15 10:48:00;;;;;;;23.60;3.60;;;;;;;21.33;50.03;99593.89;137333;1275;22319;-84
2023/09/15 10:51:03;;;;;;;3.70;2.90;;;;;;;21.21;50.56;99594.30;137312;1274;22825;-85
2023/09/15 10:54:11;;;;;;;5.40;3.00;;;;;;;21.16;50.48;99595.96;137289;1272;22370;-84
2023/09/15 10:57:20;;;;;;;4.90;2.70;;;;;;;21.07;50.32;99596.15;137213;1275;22538;-84
2023/09/15 11:00:24;;;;;;;56.20;6.60;;;;;;;21.16;51.43;99592.79;137300;1275;22186;-85
2023/09/15 11:03:26;;;;;;;3.00;2.60;;;;;;;21.62;51.04;99591.54;137335;1274;22150;-85
2023/09/15 11:06:29;;;;;;;14.70;4.10;;;;;;;21.56;49.84;99588.45;137307;1274;22199;-83
2023/09/15 11:09:32;;;;;;;11.80;3.50;;;;;;;21.43;50.61;99589.61;137300;1275;22262;-84
2023/09/15 11:12:35;;;;;;;19.70;5.00;;;;;;;21.52;51.51;99586.59;137271;1260;22249;-82
2023/09/15 11:15:37;;;;;;;64.20;10.90;;;;;;;21.68;51.85;99586.81;137328;1262;22215;-84
2023/09/15 11:18:40;;;;;;;52.50;6.10;;;;;;;21.85;52.38;99585.58;137411;1274;22375;-84
2023/09/15 11:21:43;;;;;;;10.50;3.30;;;;;;;22.12;51.15;99581.60;137338;1275;22202;-85
2023/09/15 11:24:45;;;;;;;3.90;2.90;;;;;;;22.24;49.51;99579.40;137430;1275;22210;-82
2023/09/15 11:27:48;;;;;;;3.20;2.90;;;;;;;21.96;47.07;99580.36;137457;1275;22217;-81
2023/09/15 11:30:50;;;;;;;3.70;3.00;;;;;;;21.58;46.51;99570.55;137306;1274;22314;-82
2023/09/15 11:33:54;;;;;;;3.70;2.70;;;;;;;21.37;46.36;99568.14;137348;1274;22229;-81
2023/09/15 11:36:57;;;;;;;12.10;2.90;;;;;;;21.30;48.46;99566.70;137348;1267;22276;-82
2023/09/15 11:40:02;;;;;;;21.60;4.00;;;;;;;21.32;49.44;99568.24;137286;1274;22814;-81
2023/09/15 11:43:05;;;;;;;9.20;3.60;;;;;;;21.63;50.11;99571.16;137293;1262;22233;-81
2023/09/15 11:46:09;;;;;;;7.90;3.10;;;;;;;22.00;48.94;99569.65;137280;1274;22291;-80
2023/09/15 11:49:12;;;;;;;13.80;3.30;;;;;;;22.15;48.80;99570.22;137355;1274;22249;-82
2023/09/15 11:52:15;;;;;;;102.30;10.50;;;;;;;22.43;48.23;99568.46;137352;1275;22244;-81
2023/09/15 11:55:17;;;;;;;5.90;3.20;;;;;;;22.47;47.41;99572.27;137284;1275;22288;-79
2023/09/15 11:58:20;;;;;;;12.90;4.20;;;;;;;22.42;47.79;99565.30;137270;1274;22255;-80
2023/09/15 12:01:24;;;;;;;6.70;3.70;;;;;;;22.77;47.21;99561.23;137256;1275;22153;-83
2023/09/15 12:04:27;;;;;;;11.90;3.60;;;;;;;22.97;46.47;99562.33;137331;1275;22322;-82
2023/09/15 12:07:29;;;;;;;8.70;3.30;;;;;;;23.05;46.35;99569.92;137291;1275;22073;-82
2023/09/15 12:10:32;;;;;;;6.50;3.20;;;;;;;23.05;46.82;99564.95;137279;1275;22350;-83
2023/09/15 12:13:35;;;;;;;14.60;3.10;;;;;;;22.83;46.23;99565.35;137223;1275;22212;-81
2023/09/15 12:16:38;;;;;;;5.00;3.40;;;;;;;22.79;45.74;99569.16;137278;1275;22300;-81
2023/09/15 12:19:41;;;;;;;19.60;4.20;;;;;;;22.65;45.77;99562.27;137281;1275;22293;-85
2023/09/15 12:22:45;;;;;;;9.70;2.90;;;;;;;22.85;45.72;99557.66;137313;1272;22157;-85
2023/09/15 12:25:50;;;;;;;3.30;3.00;;;;;;;22.98;45.59;99555.75;137306;1274;22291;-84
2023/09/15 12:29:10;;;;;;;;;;;;;;;;;;;;;
2023/09/15 12:32:27;;;;;;;4.50;3.50;;;;;;;23.29;46.09;99547.92;137245;1275;22197;-83
2023/09/15 12:35:31;;;;;;;6.30;3.60;;;;;;;23.49;45.91;99545.60;137258;1275;22818;-84
2023/09/15 12:38:48;;;;;;;5.10;3.10;;;;;;;23.46;45.99;99544.79;137180;1275;22978;-82
2023/09/15 12:41:51;;;;;;;4.70;3.20;;;;;;;23.43;45.55;99541.16;137245;1275;22565;-82
2023/09/15 12:44:53;;;;;;;12.80;3.90;;;;;;;23.25;45.59;99540.04;137222;1274;22196;-82
2023/09/15 12:47:56;;;;;;;13.60;4.70;;;;;;;23.22;46.04;99531.44;137305;1275;22329;-81
2023/09/15 12:50:58;;;;;;;15.50;3.40;;;;;;;23.38;45.38;99531.35;137302;1274;23226;-81
2023/09/15 12:54:04;;;;;;;4.00;3.40;;;;;;;23.37;45.48;99535.62;137267;1262;22235;-83
2023/09/15 12:57:07;;;;;;;28.40;5.70;;;;;;;23.36;45.70;99532.64;137331;1275;22742;-81
2023/09/15 13:00:10;;;;;;;12.80;3.80;;;;;;;23.46;46.13;99530.59;137292;1266;22281;-83
2023/09/15 13:03:13;;;;;;;14.30;9.60;;;;;;;23.58;44.39;99529.23;137275;1269;22210;-83
2023/09/15 13:06:16;;;;;;;10.10;4.10;;;;;;;23.58;44.66;99532.23;137346;1275;22160;-82
2023/09/15 13:09:20;;;;;;;19.00;5.10;;;;;;;23.61;44.65;99533.56;137313;1274;22221;-85
2023/09/15 13:12:23;;;;;;;9.40;4.30;;;;;;;23.71;44.60;99529.51;137334;1275;22375;-79
2023/09/15 13:15:26;;;;;;;8.00;4.50;;;;;;;23.67;44.71;99527.15;137319;1274;23069;-83
2023/09/15 13:18:29;;;;;;;9.90;4.10;;;;;;;23.59;44.29;99525.98;137192;1275;23072;-80
2023/09/15 13:21:33;;;;;;;15.00;4.60;;;;;;;23.59;43.70;99520.99;137246;1275;22591;-82
2023/09/15 13:24:36;;;;;;;8.90;3.70;;;;;;;23.66;43.46;99522.23;137295;1275;22163;-83
2023/09/15 13:27:42;;;;;;;4.50;3.30;;;;;;;23.59;43.37;99515.31;137298;1275;22882;-83
2023/09/15 13:30:44;;;;;;;4.10;3.10;;;;;;;23.55;43.67;99517.58;137315;1275;22604;-83
2023/09/15 13:33:47;;;;;;;8.60;3.50;;;;;;;23.48;43.93;99516.14;137287;1274;22642;-84
2023/09/15 13:36:50;;;;;;;9.50;3.70;;;;;;;23.54;44.50;99514.23;137332;1275;22336;-83
2023/09/15 13:39:53;;;;;;;8.80;3.80;;;;;;;23.35;43.27;99517.77;137345;1275;22181;-84
2023/09/15 13:42:55;;;;;;;9.00;3.70;;;;;;;23.10;44.30;99515.64;137329;1274;22097;-83
2023/09/15 13:45:59;;;;;;;7.50;3.70;;;;;;;23.23;44.61;99510.46;137359;1275;22533;-83
2023/09/15 13:49:01;;;;;;;4.20;3.30;;;;;;;23.33;44.42;99507.86;137395;1275;22274;-83
2023/09/15 13:52:04;;;;;;;4.20;3.30;;;;;;;23.40;44.25;99506.43;137296;1275;22396;-83
2023/09/15 13:55:07;;;;;;;29.40;5.70;;;;;;;23.42;44.28;99507.43;137323;1275;23135;-83
2023/09/15 13:58:10;;;;;;;6.40;3.70;;;;;;;23.45;44.29;99506.45;137315;1274;22213;-82
2023/09/15 14:01:12;;;;;;;20.20;18.00;;;;;;;23.51;44.05;99506.31;137280;1275;22201;-82
2023/09/15 14:04:17;;;;;;;4.80;3.40;;;;;;;23.44;43.94;99505.59;137326;1275;22204;-83
2023/09/15 14:07:20;;;;;;;5.40;3.40;;;;;;;23.40;44.16;99506.61;137305;1275;22143;-82
2023/09/15 14:10:22;;;;;;;18.00;4.10;;;;;;;23.39;44.03;99502.20;137365;1275;22282;-83
2023/09/15 14:13:25;;;;;;;5.30;3.40;;;;;;;23.40;43.82;99501.81;137326;1274;22498;-82
2023/09/15 14:16:27;;;;;;;6.20;3.80;;;;;;;23.41;43.66;99500.01;137348;1274;22389;-82
2023/09/15 14:19:30;;;;;;;4.70;3.50;;;;;;;23.36;44.08;99491.95;137425;1275;22302;-83
2023/09/15 14:22:32;;;;;;;8.50;3.30;;;;;;;23.17;44.19;99485.77;137387;1274;22245;-83
2023/09/15 14:25:35;;;;;;;8.90;3.50;;;;;;;22.98;44.15;99488.11;137464;1272;22230;-85
2023/09/15 14:28:37;;;;;;;3.90;3.20;;;;;;;22.90;44.52;99484.42;137413;1275;22311;-82
2023/09/15 14:31:41;;;;;;;5.50;3.20;;;;;;;22.99;44.11;99481.33;137416;1275;22208;-85
2023/09/15 14:34:43;;;;;;;9.00;3.90;;;;;;;23.08;44.04;99481.60;137396;1271;22321;-84
2023/09/15 14:37:46;;;;;;;4.20;3.10;;;;;;;23.14;44.26;99472.21;137246;1275;22264;-84
2023/09/15 14:40:48;;;;;;;6.00;3.40;;;;;;;23.20;44.43;99473.64;137373;1274;22366;-84
2023/09/15 14:43:51;;;;;;;42.70;5.60;;;;;;;23.30;44.86;99471.39;137421;1275;22290;-84
2023/09/15 14:46:54;;;;;;;26.30;4.90;;;;;;;23.33;45.05;99474.84;137481;1275;22630;-83
2023/09/15 14:49:56;;;;;;;9.80;3.20;;;;;;;23.30;44.63;99473.34;137310;1275;22247;-83
2023/09/15 14:52:59;;;;;;;12.90;3.90;;;;;;;23.22;44.17;99471.98;137283;1274;22549;-82
2023/09/15 14:56:02;;;;;;;17.00;6.10;;;;;;;23.16;44.39;99470.20;136974;1274;22539;-84
2023/09/15 14:59:04;;;;;;;61.20;10.30;;;;;;;23.11;44.36;99466.96;136864;1274;22536;-83
2023/09/15 15:02:07;;;;;;;163.90;23.50;;;;;;;23.12;44.86;99469.25;137327;1275;22240;-84
2023/09/15 15:05:11;;;;;;;27.50;6.30;;;;;;;23.19;45.02;99466.36;137422;1274;22193;-83